createdAt,value
2018-03-04T00:00:25.068Z,55.2
2018-03-04T00:01:05.633Z,55.2
2018-03-04T00:01:46.193Z,55.11
2018-03-04T00:02:26.925Z,55.39
2018-03-04T00:03:07.507Z,55.01
2018-03-04T00:03:48.297Z,54.92
2018-03-04T00:04:28.925Z,55.39
2018-03-04T00:05:09.566Z,55.2
2018-03-04T00:05:50.268Z,55.11
2018-03-04T00:06:30.967Z,55.11
2018-03-04T00:07:11.624Z,55.3
2018-03-04T00:07:52.263Z,55.3
2018-03-04T00:08:32.841Z,55.49
2018-03-04T00:09:13.448Z,55.77
2018-03-04T00:09:54.173Z,55.39
2018-03-04T00:10:34.788Z,55.49
2018-03-04T00:11:15.477Z,55.67
2018-03-04T00:11:56.143Z,55.49
2018-03-04T00:12:36.770Z,55.58
2018-03-04T00:13:17.357Z,55.77
2018-03-04T00:13:57.958Z,55.58
2018-03-04T00:14:38.535Z,55.49
2018-03-04T00:15:19.094Z,55.67
2018-03-04T00:15:59.690Z,55.58
2018-03-04T00:16:40.285Z,55.58
2018-03-04T00:17:20.835Z,55.58
2018-03-04T00:18:01.459Z,55.67
2018-03-04T00:18:41.994Z,55.2
2018-03-04T00:19:22.571Z,55.77
2018-03-04T00:20:03.131Z,55.67
2018-03-04T00:20:43.684Z,55.77
2018-03-04T00:21:24.268Z,55.39
2018-03-04T00:22:04.825Z,55.49
2018-03-04T00:22:45.389Z,55.77
2018-03-04T00:23:25.943Z,55.86
2018-03-04T00:24:06.491Z,55.86
2018-03-04T00:24:47.066Z,55.3
2018-03-04T00:25:27.621Z,55.83
2018-03-04T00:26:08.284Z,56.05
2018-03-04T00:26:48.922Z,55.96
2018-03-04T00:27:29.525Z,56.34
2018-03-04T00:28:10.120Z,56.12
2018-03-04T00:28:50.694Z,56.49
2018-03-04T00:29:31.243Z,56.43
2018-03-04T00:30:11.828Z,56.34
2018-03-04T00:30:52.404Z,56.34
2018-03-04T00:31:32.999Z,56.34
2018-03-04T00:32:13.586Z,56.43
2018-03-04T00:32:54.132Z,56.34
2018-03-04T00:33:34.700Z,56.4
2018-03-04T00:34:15.241Z,56.4
2018-03-04T00:34:55.848Z,56.68
2018-03-04T00:35:36.399Z,56.59
2018-03-04T00:36:16.939Z,56.87
2018-03-04T00:36:57.577Z,56.87
2018-03-04T00:37:38.167Z,56.71
2018-03-04T00:38:18.694Z,56.43
2018-03-04T00:38:59.265Z,56.12
2018-03-04T00:39:39.812Z,56.43
2018-03-04T00:40:20.355Z,56.52
2018-03-04T00:41:00.978Z,56.52
2018-03-04T00:41:41.527Z,56.4
2018-03-04T00:42:22.088Z,56.9
2018-03-04T00:43:02.677Z,56.59
2018-03-04T00:43:43.216Z,56.52
2018-03-04T00:44:23.780Z,56.21
2018-03-04T00:45:04.349Z,56.34
2018-03-04T00:45:44.896Z,56.34
2018-03-04T00:46:25.454Z,56.43
2018-03-04T00:47:06.091Z,56.34
2018-03-04T00:47:46.694Z,56.24
2018-03-04T00:48:27.208Z,56.15
2018-03-04T00:49:07.785Z,56.43
2018-03-04T00:49:48.339Z,56.34
2018-03-04T00:50:28.885Z,56.43
2018-03-04T00:51:09.432Z,56.52
2018-03-04T00:51:49.992Z,56.43
2018-03-04T00:52:30.541Z,56.34
2018-03-04T00:53:11.098Z,56.34
2018-03-04T00:53:51.669Z,56.34
2018-03-04T00:54:32.246Z,56.52
2018-03-04T00:55:12.830Z,56.34
2018-03-04T00:55:53.389Z,56.34
2018-03-04T00:56:33.961Z,56.15
2018-03-04T00:57:14.533Z,56.15
2018-03-04T00:57:55.126Z,56.15
2018-03-04T00:58:35.669Z,56.15
2018-03-04T00:59:16.234Z,56.34
2018-03-04T00:59:56.778Z,56.34
2018-03-04T01:00:37.381Z,56.15
2018-03-04T01:01:17.988Z,56.05
2018-03-04T01:01:58.547Z,55.83
2018-03-04T01:02:39.122Z,56.12
2018-03-04T01:03:19.716Z,56.24
2018-03-04T01:04:00.284Z,56.3
2018-03-04T01:04:40.847Z,56.21
2018-03-04T01:05:21.397Z,56.21
2018-03-04T01:06:01.975Z,56.49
2018-03-04T01:06:42.819Z,56.3
2018-03-04T01:07:23.393Z,56.3
2018-03-04T01:08:03.952Z,56.3
2018-03-04T01:08:44.524Z,56.3
2018-03-04T01:09:25.076Z,56.3
2018-03-04T01:10:05.624Z,56.3
2018-03-04T01:10:46.195Z,56.3
2018-03-04T01:11:26.793Z,56.21
2018-03-04T01:12:07.367Z,56.3
2018-03-04T01:12:47.935Z,56.4
2018-03-04T01:13:28.490Z,56.4
2018-03-04T01:14:09.010Z,56.21
2018-03-04T01:14:49.566Z,56.4
2018-03-04T01:15:30.122Z,56.3
2018-03-04T01:16:10.671Z,56.4
2018-03-04T01:16:51.247Z,56.4
2018-03-04T01:17:31.844Z,56.3
2018-03-04T01:18:12.356Z,56.4
2018-03-04T01:18:52.925Z,56.12
2018-03-04T01:19:33.477Z,56.12
2018-03-04T01:20:14.041Z,56.4
2018-03-04T01:20:54.594Z,56.3
2018-03-04T01:21:35.146Z,56.3
2018-03-04T01:22:15.710Z,56.4
2018-03-04T01:22:56.244Z,56.3
2018-03-04T01:23:36.896Z,56.68
2018-03-04T01:24:17.414Z,56.77
2018-03-04T01:24:57.960Z,56.59
2018-03-04T01:25:38.536Z,56.59
2018-03-04T01:26:19.116Z,56.59
2018-03-04T01:26:59.641Z,56.49
2018-03-04T01:27:40.203Z,56.59
2018-03-04T01:28:20.732Z,56.59
2018-03-04T01:29:01.271Z,56.49
2018-03-04T01:29:41.840Z,56.68
2018-03-04T01:30:22.384Z,56.59
2018-03-04T01:31:02.931Z,56.87
2018-03-04T01:31:43.486Z,56.87
2018-03-04T01:32:24.052Z,57.06
2018-03-04T01:33:04.615Z,57.15
2018-03-04T01:33:45.195Z,57.06
2018-03-04T01:34:25.744Z,57.25
2018-03-04T01:35:06.315Z,57.06
2018-03-04T01:35:46.881Z,57.06
2018-03-04T01:36:27.467Z,56.87
2018-03-04T01:37:07.980Z,56.87
2018-03-04T01:37:48.537Z,57.06
2018-03-04T01:38:29.093Z,57.15
2018-03-04T01:39:09.654Z,57.06
2018-03-04T01:39:50.211Z,57.06
2018-03-04T01:40:30.762Z,57.15
2018-03-04T01:41:11.327Z,57.43
2018-03-04T01:41:51.881Z,57.43
2018-03-04T01:42:32.430Z,57.53
2018-03-04T01:43:12.980Z,57.43
2018-03-04T01:43:53.543Z,57.15
2018-03-04T01:44:34.065Z,57.25
2018-03-04T01:45:14.617Z,57.53
2018-03-04T01:45:55.164Z,57.06
2018-03-04T01:46:35.718Z,57.53
2018-03-04T01:47:16.266Z,57.43
2018-03-04T01:47:56.911Z,57.25
2018-03-04T01:48:37.382Z,57.43
2018-03-04T01:49:17.929Z,57.53
2018-03-04T01:49:58.486Z,57.43
2018-03-04T01:50:39.031Z,57.43
2018-03-04T01:51:19.584Z,57.43
2018-03-04T01:52:00.132Z,57.25
2018-03-04T01:52:43.495Z,57.25
2018-03-04T01:53:24.088Z,57.15
2018-03-04T01:54:04.704Z,57.25
2018-03-04T01:54:45.250Z,57.43
2018-03-04T01:55:25.800Z,57.34
2018-03-04T01:56:06.366Z,57.43
2018-03-04T01:56:46.924Z,57.43
2018-03-04T01:57:27.481Z,57.43
2018-03-04T01:58:08.040Z,57.25
2018-03-04T01:58:48.725Z,57.43
2018-03-04T01:59:29.283Z,57.53
2018-03-04T02:00:09.824Z,57.53
2018-03-04T02:00:50.383Z,57.53
2018-03-04T02:01:30.926Z,57.81
2018-03-04T02:02:11.526Z,57.53
2018-03-04T02:02:52.069Z,57.81
2018-03-04T02:03:32.757Z,57.62
2018-03-04T02:04:13.297Z,57.34
2018-03-04T02:04:53.855Z,57.53
2018-03-04T02:05:34.406Z,57.53
2018-03-04T02:06:14.949Z,57.53
2018-03-04T02:06:55.500Z,57.34
2018-03-04T02:07:36.051Z,57.34
2018-03-04T02:08:16.601Z,57.43
2018-03-04T02:08:57.152Z,57.53
2018-03-04T02:09:37.700Z,57.34
2018-03-04T02:10:18.262Z,57.34
2018-03-04T02:10:58.784Z,57.53
2018-03-04T02:11:39.361Z,57.62
2018-03-04T02:12:19.901Z,57.25
2018-03-04T02:13:00.452Z,57.34
2018-03-04T02:13:41.010Z,57.43
2018-03-04T02:14:21.565Z,57.53
2018-03-04T02:15:02.138Z,57.91
2018-03-04T02:15:42.698Z,57.62
2018-03-04T02:16:23.248Z,57.43
2018-03-04T02:17:03.808Z,57.25
2018-03-04T02:17:44.375Z,57.25
2018-03-04T02:18:24.921Z,57.43
2018-03-04T02:19:05.479Z,57.43
2018-03-04T02:19:46.038Z,57.43
2018-03-04T02:20:26.631Z,57.91
2018-03-04T02:21:07.180Z,57.53
2018-03-04T02:21:47.732Z,57.43
2018-03-04T02:22:28.279Z,57.91
2018-03-04T02:23:08.826Z,58.19
2018-03-04T02:23:49.384Z,58
2018-03-04T02:24:29.920Z,57.91
2018-03-04T02:25:10.470Z,57.91
2018-03-04T02:25:51.021Z,57.91
2018-03-04T02:26:31.573Z,58.19
2018-03-04T02:27:12.125Z,58
2018-03-04T02:27:52.688Z,58.57
2018-03-04T02:28:33.241Z,58.38
2018-03-04T02:29:13.784Z,58.57
2018-03-04T02:29:54.345Z,58.57
2018-03-04T02:30:34.910Z,58.76
2018-03-04T02:31:15.461Z,58.66
2018-03-04T02:31:56.020Z,58.57
2018-03-04T02:32:36.577Z,58.66
2018-03-04T02:33:17.147Z,58.19
2018-03-04T02:33:57.705Z,58.47
2018-03-04T02:34:38.255Z,58.38
2018-03-04T02:35:18.813Z,58.29
2018-03-04T02:35:59.366Z,58.29
2018-03-04T02:36:39.918Z,58.38
2018-03-04T02:37:20.483Z,58.29
2018-03-04T02:38:01.040Z,58.29
2018-03-04T02:38:41.591Z,58.38
2018-03-04T02:39:22.341Z,58.47
2018-03-04T02:40:03.315Z,58.57
2018-03-04T02:40:44.199Z,58.47
2018-03-04T02:41:24.811Z,58.47
2018-03-04T02:42:05.374Z,58
2018-03-04T02:42:45.931Z,58.57
2018-03-04T02:43:26.482Z,58.47
2018-03-04T02:44:07.038Z,58.29
2018-03-04T02:44:47.572Z,57.91
2018-03-04T02:45:28.125Z,57.81
2018-03-04T02:46:08.685Z,58.19
2018-03-04T02:46:49.235Z,58.19
2018-03-04T02:47:29.775Z,58.1
2018-03-04T02:48:10.321Z,57.81
2018-03-04T02:48:50.881Z,57.81
2018-03-04T02:49:31.439Z,58.29
2018-03-04T02:50:11.991Z,58
2018-03-04T02:50:52.536Z,57.91
2018-03-04T02:51:33.090Z,58
2018-03-04T02:52:13.634Z,58
2018-03-04T02:52:54.192Z,58.1
2018-03-04T02:53:34.745Z,58.47
2018-03-04T02:54:15.308Z,58.19
2018-03-04T02:54:55.863Z,58.38
2018-03-04T02:55:36.415Z,58.29
2018-03-04T02:56:16.971Z,58.85
2018-03-04T02:56:57.528Z,58.66
2018-03-04T02:57:38.066Z,58.76
2018-03-04T02:58:18.618Z,58.76
2018-03-04T02:58:59.168Z,58.66
2018-03-04T02:59:39.717Z,58.57
2018-03-04T03:00:20.271Z,58.76
2018-03-04T03:01:00.818Z,58.66
2018-03-04T03:01:41.371Z,58.95
2018-03-04T03:02:21.924Z,59.14
2018-03-04T03:03:02.471Z,58.85
2018-03-04T03:03:43.044Z,58.85
2018-03-04T03:04:23.596Z,58.66
2018-03-04T03:05:04.172Z,58.66
2018-03-04T03:05:44.727Z,58.85
2018-03-04T03:06:25.290Z,58.85
2018-03-04T03:07:05.843Z,58.57
2018-03-04T03:07:46.391Z,58.66
2018-03-04T03:08:26.944Z,59.14
2018-03-04T03:09:07.502Z,59.23
2018-03-04T03:09:48.064Z,58.95
2018-03-04T03:10:28.612Z,58.85
2018-03-04T03:11:09.192Z,59.04
2018-03-04T03:11:49.729Z,59.04
2018-03-04T03:12:30.271Z,59.04
2018-03-04T03:13:10.829Z,58.57
2018-03-04T03:13:51.380Z,58.85
2018-03-04T03:14:31.937Z,58.85
2018-03-04T03:15:12.469Z,58.76
2018-03-04T03:15:53.018Z,58.66
2018-03-04T03:16:33.575Z,58.85
2018-03-04T03:17:14.121Z,58.47
2018-03-04T03:17:54.678Z,58.57
2018-03-04T03:18:35.221Z,58.76
2018-03-04T03:19:15.790Z,58.76
2018-03-04T03:19:56.325Z,58.76
2018-03-04T03:20:36.878Z,58.38
2018-03-04T03:21:17.434Z,58.19
2018-03-04T03:21:57.984Z,58.47
2018-03-04T03:22:38.536Z,58.38
2018-03-04T03:23:19.081Z,58.19
2018-03-04T03:23:59.705Z,58.85
2018-03-04T03:24:40.261Z,58.85
2018-03-04T03:25:20.799Z,58.76
2018-03-04T03:26:01.343Z,58.66
2018-03-04T03:26:41.886Z,58.95
2018-03-04T03:27:22.442Z,58.76
2018-03-04T03:28:02.999Z,58.76
2018-03-04T03:28:43.561Z,58.85
2018-03-04T03:29:24.129Z,58.66
2018-03-04T03:30:04.677Z,58.85
2018-03-04T03:30:45.230Z,58.76
2018-03-04T03:31:25.790Z,59.04
2018-03-04T03:32:06.333Z,58.95
2018-03-04T03:32:46.892Z,58.95
2018-03-04T03:33:27.442Z,58.85
2018-03-04T03:34:07.996Z,58.95
2018-03-04T03:34:48.554Z,58.85
2018-03-04T03:35:29.103Z,58.76
2018-03-04T03:36:09.672Z,58.57
2018-03-04T03:36:50.220Z,58.85
2018-03-04T03:37:30.764Z,59.14
2018-03-04T03:38:11.325Z,58.95
2018-03-04T03:38:51.862Z,58.85
2018-03-04T03:39:32.418Z,59.14
2018-03-04T03:40:12.957Z,59.23
2018-03-04T03:40:53.510Z,59.14
2018-03-04T03:41:34.061Z,59.33
2018-03-04T03:42:14.620Z,59.14
2018-03-04T03:42:55.158Z,59.14
2018-03-04T03:43:35.704Z,59.51
2018-03-04T03:44:16.289Z,59.61
2018-03-04T03:44:56.861Z,59.51
2018-03-04T03:45:37.421Z,59.89
2018-03-04T03:46:17.989Z,59.7
2018-03-04T03:46:58.542Z,59.8
2018-03-04T03:47:39.120Z,59.33
2018-03-04T03:48:19.649Z,59.51
2018-03-04T03:49:00.200Z,59.51
2018-03-04T03:49:40.755Z,59.61
2018-03-04T03:50:21.313Z,59.61
2018-03-04T03:51:01.872Z,58.95
2018-03-04T03:51:42.424Z,59.33
2018-03-04T03:52:22.979Z,59.33
2018-03-04T03:53:03.548Z,59.33
2018-03-04T03:53:44.151Z,58.85
2018-03-04T03:54:24.695Z,59.51
2018-03-04T03:55:05.229Z,58.85
2018-03-04T03:55:45.805Z,58.76
2018-03-04T03:56:26.322Z,58.66
2018-03-04T03:57:06.879Z,59.04
2018-03-04T03:57:47.429Z,59.23
2018-03-04T03:58:27.997Z,59.04
2018-03-04T03:59:08.520Z,59.51
2018-03-04T03:59:49.059Z,58.95
2018-03-04T04:00:29.609Z,59.61
2018-03-04T04:01:10.169Z,59.33
2018-03-04T04:01:50.722Z,58.95
2018-03-04T04:02:31.267Z,59.51
2018-03-04T04:03:11.809Z,59.14
2018-03-04T04:03:52.359Z,59.04
2018-03-04T04:04:32.910Z,58.85
2018-03-04T04:05:13.466Z,59.04
2018-03-04T04:05:54.024Z,59.23
2018-03-04T04:06:34.572Z,59.23
2018-03-04T04:07:15.114Z,59.7
2018-03-04T04:07:55.656Z,59.7
2018-03-04T04:08:36.210Z,59.33
2018-03-04T04:09:16.760Z,59.33
2018-03-04T04:09:57.313Z,59.23
2018-03-04T04:10:37.871Z,59.42
2018-03-04T04:11:18.423Z,59.8
2018-03-04T04:11:58.968Z,59.8
2018-03-04T04:12:39.530Z,59.51
2018-03-04T04:13:20.112Z,59.33
2018-03-04T04:14:00.665Z,59.42
2018-03-04T04:14:41.226Z,59.33
2018-03-04T04:15:21.773Z,59.33
2018-03-04T04:16:02.340Z,59.33
2018-03-04T04:16:42.884Z,60.08
2018-03-04T04:17:23.439Z,59.89
2018-03-04T04:18:04.035Z,59.61
2018-03-04T04:18:44.600Z,60.17
2018-03-04T04:19:25.160Z,60.08
2018-03-04T04:20:05.716Z,60.17
2018-03-04T04:20:46.269Z,60.27
2018-03-04T04:21:26.826Z,60.55
2018-03-04T04:22:07.376Z,60.17
2018-03-04T04:22:47.913Z,60.55
2018-03-04T04:23:28.482Z,60.27
2018-03-04T04:24:09.044Z,60.64
2018-03-04T04:24:49.599Z,60.36
2018-03-04T04:25:30.166Z,59.99
2018-03-04T04:26:10.716Z,60.08
2018-03-04T04:26:51.273Z,60.27
2018-03-04T04:27:31.792Z,60.08
2018-03-04T04:28:12.345Z,60.17
2018-03-04T04:28:52.927Z,60.27
2018-03-04T04:29:33.498Z,60.36
2018-03-04T04:30:14.040Z,60.27
2018-03-04T04:30:54.579Z,60.36
2018-03-04T04:31:35.143Z,60.46
2018-03-04T04:32:15.702Z,60.55
2018-03-04T04:32:56.245Z,60.74
2018-03-04T04:33:36.793Z,60.93
2018-03-04T04:34:17.340Z,60.46
2018-03-04T04:34:57.904Z,60.36
2018-03-04T04:35:38.505Z,60.17
2018-03-04T04:36:19.057Z,60.27
2018-03-04T04:36:59.583Z,60.27
2018-03-04T04:37:40.142Z,60.36
2018-03-04T04:38:20.710Z,60.08
2018-03-04T04:39:01.256Z,60.08
2018-03-04T04:39:41.789Z,60.27
2018-03-04T04:40:22.344Z,60.55
2018-03-04T04:41:02.901Z,60.27
2018-03-04T04:41:43.455Z,60.27
2018-03-04T04:42:24.021Z,60.08
2018-03-04T04:43:04.571Z,60.27
2018-03-04T04:43:45.122Z,60.46
2018-03-04T04:44:25.702Z,60.08
2018-03-04T04:45:06.210Z,60.55
2018-03-04T04:45:46.758Z,60.36
2018-03-04T04:46:27.304Z,60.08
2018-03-04T04:47:07.857Z,60.64
2018-03-04T04:47:48.411Z,60.55
2018-03-04T04:48:28.970Z,60.46
2018-03-04T04:49:09.521Z,60.74
2018-03-04T04:49:50.073Z,60.74
2018-03-04T04:50:30.614Z,60.93
2018-03-04T04:51:11.170Z,60.93
2018-03-04T04:51:51.719Z,61.02
2018-03-04T04:52:32.276Z,61.02
2018-03-04T04:53:12.827Z,60.55
2018-03-04T04:53:53.432Z,60.83
2018-03-04T04:54:33.933Z,60.27
2018-03-04T04:55:14.477Z,61.02
2018-03-04T04:55:55.023Z,60.93
2018-03-04T04:56:35.588Z,60.93
2018-03-04T04:57:16.167Z,60.93
2018-03-04T04:57:56.693Z,60.93
2018-03-04T04:58:37.244Z,60.83
2018-03-04T04:59:17.795Z,60.46
2018-03-04T04:59:58.367Z,60.08
2018-03-04T05:00:38.904Z,60.27
2018-03-04T05:01:19.446Z,60.27
2018-03-04T05:01:59.998Z,60.27
2018-03-04T05:02:40.542Z,60.17
2018-03-04T05:03:21.111Z,60.36
2018-03-04T05:04:01.667Z,60.27
2018-03-04T05:04:42.209Z,60.36
2018-03-04T05:05:22.776Z,60.27
2018-03-04T05:06:03.323Z,60.27
2018-03-04T05:06:43.859Z,60.36
2018-03-04T05:07:24.410Z,60.36
2018-03-04T05:08:04.982Z,60.36
2018-03-04T05:08:45.518Z,60.46
2018-03-04T05:09:26.079Z,60.17
2018-03-04T05:10:06.689Z,60.08
2018-03-04T05:10:47.200Z,60.36
2018-03-04T05:11:27.757Z,60.27
2018-03-04T05:12:08.312Z,60.27
2018-03-04T05:12:48.867Z,60.27
2018-03-04T05:13:29.412Z,60.36
2018-03-04T05:14:09.962Z,60.36
2018-03-04T05:14:50.506Z,60.17
2018-03-04T05:15:31.086Z,60.27
2018-03-04T05:16:11.598Z,60.08
2018-03-04T05:16:52.147Z,60.27
2018-03-04T05:17:32.696Z,60.27
2018-03-04T05:18:13.296Z,60.36
2018-03-04T05:18:53.792Z,60.08
2018-03-04T05:19:34.348Z,60.17
2018-03-04T05:20:14.897Z,60.27
2018-03-04T05:20:55.454Z,60.36
2018-03-04T05:21:35.997Z,60.46
2018-03-04T05:22:16.553Z,60.64
2018-03-04T05:22:57.112Z,60.36
2018-03-04T05:23:37.665Z,61.02
2018-03-04T05:24:18.212Z,60.36
2018-03-04T05:24:58.772Z,60.74
2018-03-04T05:25:39.321Z,60.93
2018-03-04T05:26:19.873Z,60.83
2018-03-04T05:27:00.422Z,60.93
2018-03-04T05:27:40.987Z,60.64
2018-03-04T05:28:21.522Z,60.27
2018-03-04T05:29:02.078Z,60.55
2018-03-04T05:29:42.632Z,60.74
2018-03-04T05:30:23.195Z,60.74
2018-03-04T05:31:03.739Z,60.83
2018-03-04T05:31:44.293Z,60.61
2018-03-04T05:32:24.872Z,60.71
2018-03-04T05:33:05.436Z,60.71
2018-03-04T05:33:45.980Z,60.89
2018-03-04T05:34:26.523Z,60.61
2018-03-04T05:35:07.062Z,61.08
2018-03-04T05:35:47.602Z,61.27
2018-03-04T05:36:28.152Z,61.18
2018-03-04T05:37:08.703Z,61.11
2018-03-04T05:37:49.275Z,61.08
2018-03-04T05:38:29.829Z,61.3
2018-03-04T05:39:10.377Z,61.11
2018-03-04T05:39:50.941Z,60.93
2018-03-04T05:40:31.476Z,60.89
2018-03-04T05:41:12.044Z,60.83
2018-03-04T05:41:52.581Z,60.89
2018-03-04T05:42:33.137Z,60.93
2018-03-04T05:43:13.695Z,60.99
2018-03-04T05:43:54.237Z,60.8
2018-03-04T05:44:34.787Z,60.8
2018-03-04T05:45:15.349Z,60.61
2018-03-04T05:45:55.903Z,60.89
2018-03-04T05:46:36.454Z,61.11
2018-03-04T05:47:16.998Z,61.02
2018-03-04T05:47:57.559Z,61.18
2018-03-04T05:48:38.119Z,60.83
2018-03-04T05:49:18.678Z,60.64
2018-03-04T05:52:43.432Z,61.4
2018-03-04T05:53:23.967Z,61.02
2018-03-04T05:54:04.516Z,61.21
2018-03-04T05:54:45.086Z,61.11
2018-03-04T05:55:25.652Z,61.11
2018-03-04T05:56:06.200Z,61.4
2018-03-04T05:56:46.750Z,60.93
2018-03-04T05:57:27.304Z,60.74
2018-03-04T05:58:07.839Z,61.02
2018-03-04T05:58:48.390Z,61.11
2018-03-04T05:59:28.940Z,60.74
2018-03-04T06:00:09.496Z,61.11
2018-03-04T06:00:50.055Z,60.74
2018-03-04T06:01:30.606Z,61.11
2018-03-04T06:02:11.170Z,60.93
2018-03-04T06:02:51.728Z,60.93
2018-03-04T06:03:32.278Z,60.93
2018-03-04T06:04:12.833Z,60.74
2018-03-04T06:04:53.385Z,60.83
2018-03-04T06:05:33.944Z,61.02
2018-03-04T06:06:14.579Z,60.93
2018-03-04T06:06:55.136Z,61.02
2018-03-04T06:07:35.702Z,60.55
2018-03-04T06:08:16.253Z,61.02
2018-03-04T06:08:56.825Z,60.93
2018-03-04T06:09:37.372Z,60.93
2018-03-04T06:10:17.924Z,60.46
2018-03-04T06:10:58.454Z,60.27
2018-03-04T06:11:39.022Z,60.27
2018-03-04T06:12:19.620Z,60.27
2018-03-04T06:13:00.129Z,60.46
2018-03-04T06:13:40.673Z,60.27
2018-03-04T06:14:21.224Z,60.46
2018-03-04T06:15:01.768Z,60.93
2018-03-04T06:15:42.319Z,60.46
2018-03-04T06:16:22.863Z,60.93
2018-03-04T06:17:03.421Z,60.83
2018-03-04T06:17:43.983Z,60.64
2018-03-04T06:18:24.527Z,60.64
2018-03-04T06:19:05.076Z,60.74
2018-03-04T06:19:45.626Z,60.93
2018-03-04T06:20:26.185Z,60.93
2018-03-04T06:21:06.727Z,60.74
2018-03-04T06:21:47.278Z,60.93
2018-03-04T06:22:27.829Z,60.93
2018-03-04T06:23:08.394Z,60.27
2018-03-04T06:23:48.945Z,60.93
2018-03-04T06:24:29.490Z,60.27
2018-03-04T06:25:10.035Z,60.36
2018-03-04T06:25:50.593Z,60.36
2018-03-04T06:26:31.143Z,60.17
2018-03-04T06:27:11.693Z,60.36
2018-03-04T06:27:52.240Z,60.17
2018-03-04T06:28:32.800Z,60.36
2018-03-04T06:29:13.339Z,60.17
2018-03-04T06:29:53.910Z,60.46
2018-03-04T06:30:34.455Z,60.27
2018-03-04T06:31:15.007Z,60.17
2018-03-04T06:31:55.560Z,60.17
2018-03-04T06:32:36.105Z,60.08
2018-03-04T06:33:16.668Z,60.27
2018-03-04T06:33:57.218Z,60.17
2018-03-04T06:34:37.772Z,60.36
2018-03-04T06:35:18.323Z,59.99
2018-03-04T06:35:58.856Z,60.27
2018-03-04T06:36:39.412Z,60.74
2018-03-04T06:37:19.947Z,60.93
2018-03-04T06:38:00.499Z,60.64
2018-03-04T06:38:41.055Z,61.21
2018-03-04T06:39:21.603Z,60.74
2018-03-04T06:40:02.141Z,60.83
2018-03-04T06:40:42.697Z,60.93
2018-03-04T06:41:23.253Z,60.74
2018-03-04T06:42:03.795Z,60.64
2018-03-04T06:42:44.423Z,60.64
2018-03-04T06:43:24.998Z,60.93
2018-03-04T06:44:05.548Z,60.36
2018-03-04T06:44:46.111Z,60.36
2018-03-04T06:45:26.643Z,60.93
2018-03-04T06:46:07.194Z,60.27
2018-03-04T06:46:47.738Z,61.02
2018-03-04T06:47:28.290Z,60.83
2018-03-04T06:48:08.850Z,60.46
2018-03-04T06:48:49.397Z,60.36
2018-03-04T06:49:29.958Z,60.46
2018-03-04T06:50:10.552Z,60.55
2018-03-04T06:50:51.106Z,60.46
2018-03-04T06:51:31.716Z,60.46
2018-03-04T06:52:12.263Z,60.27
2018-03-04T06:52:52.971Z,60.27
2018-03-04T06:53:33.584Z,60.36
2018-03-04T06:54:14.104Z,60.08
2018-03-04T06:54:54.656Z,60.08
2018-03-04T06:55:35.280Z,60.08
2018-03-04T06:56:15.885Z,60.27
2018-03-04T06:56:56.426Z,60.17
2018-03-04T06:57:36.987Z,60.36
2018-03-04T06:58:17.522Z,60.17
2018-03-04T06:58:58.079Z,60.36
2018-03-04T06:59:38.618Z,60.36
2018-03-04T07:00:19.181Z,59.61
2018-03-04T07:00:59.733Z,60.08
2018-03-04T07:01:40.318Z,59.89
2018-03-04T07:02:20.887Z,59.89
2018-03-04T07:03:01.415Z,59.99
2018-03-04T07:03:41.969Z,59.61
2018-03-04T07:04:22.615Z,59.8
2018-03-04T07:05:03.195Z,59.33
2018-03-04T07:05:43.753Z,59.7
2018-03-04T07:06:24.308Z,59.51
2018-03-04T07:07:04.858Z,59.33
2018-03-04T07:07:45.425Z,59.7
2018-03-04T07:08:26.016Z,59.42
2018-03-04T07:09:06.568Z,59.33
2018-03-04T07:09:47.201Z,59.33
2018-03-04T07:10:27.777Z,59.61
2018-03-04T07:11:08.364Z,59.23
2018-03-04T07:11:48.913Z,59.33
2018-03-04T07:12:29.488Z,59.23
2018-03-04T07:13:10.058Z,59.51
2018-03-04T07:13:50.667Z,59.61
2018-03-04T07:14:31.219Z,59.61
2018-03-04T07:15:11.773Z,59.99
2018-03-04T07:15:52.342Z,59.33
2018-03-04T07:16:32.939Z,59.61
2018-03-04T07:17:13.522Z,59.61
2018-03-04T07:17:54.131Z,59.23
2018-03-04T07:18:34.755Z,59.51
2018-03-04T07:19:15.338Z,59.51
2018-03-04T07:19:55.885Z,59.61
2018-03-04T07:20:36.440Z,59.33
2018-03-04T07:21:16.993Z,59.04
2018-03-04T07:21:57.553Z,58.76
2018-03-04T07:22:38.094Z,58.85
2018-03-04T07:23:18.640Z,58.76
2018-03-04T07:23:59.249Z,58.76
2018-03-04T07:24:39.897Z,58.66
2018-03-04T07:25:20.440Z,58.47
2018-03-04T07:26:01.007Z,58.66
2018-03-04T07:26:41.558Z,58.47
2018-03-04T07:27:22.124Z,58.76
2018-03-04T07:28:02.679Z,58.57
2018-03-04T07:28:43.228Z,58.85
2018-03-04T07:29:23.834Z,58.85
2018-03-04T07:30:04.436Z,58.29
2018-03-04T07:30:44.954Z,58.57
2018-03-04T07:31:25.535Z,58.85
2018-03-04T07:32:06.128Z,58.76
2018-03-04T07:32:46.668Z,58.29
2018-03-04T07:33:27.221Z,58.29
2018-03-04T07:34:07.784Z,58.38
2018-03-04T07:34:48.337Z,58.57
2018-03-04T07:35:28.873Z,57.91
2018-03-04T07:36:09.403Z,57.91
2018-03-04T07:36:49.949Z,57.72
2018-03-04T07:37:30.494Z,57.91
2018-03-04T07:38:11.066Z,57.91
2018-03-04T07:38:51.623Z,58.19
2018-03-04T07:39:32.211Z,58
2018-03-04T07:40:12.781Z,58
2018-03-04T07:40:53.337Z,58.1
2018-03-04T07:41:33.902Z,57.72
2018-03-04T07:42:14.507Z,57.43
2018-03-04T07:42:55.056Z,57.37
2018-03-04T07:43:35.614Z,57.09
2018-03-04T07:44:16.159Z,56.62
2018-03-04T07:44:56.707Z,56.34
2018-03-04T07:45:37.258Z,55.86
2018-03-04T07:46:17.818Z,55.3
2018-03-04T07:46:58.502Z,55.11
2018-03-04T07:47:39.060Z,55.01
2018-03-04T07:48:19.906Z,55.11
2018-03-04T07:49:00.468Z,54.54
2018-03-04T07:49:41.038Z,54.73
2018-03-04T07:50:21.608Z,54.16
2018-03-04T07:51:02.164Z,53.53
2018-03-04T07:51:42.805Z,52.78
2018-03-04T07:52:23.415Z,52.21
2018-03-04T07:53:03.962Z,51.73
2018-03-04T07:53:45.602Z,51.64
2018-03-04T07:54:26.268Z,51.73
2018-03-04T07:55:06.810Z,51.36
2018-03-04T07:55:47.398Z,51.73
2018-03-04T07:56:28.073Z,51.64
2018-03-04T07:57:08.623Z,52.11
2018-03-04T07:57:49.412Z,51.64
2018-03-04T07:58:31.354Z,51.62
2018-03-04T07:59:12.436Z,52.09
2018-03-04T07:59:53.580Z,52.28
2018-03-04T08:00:34.622Z,52.47
2018-03-04T08:01:15.208Z,52.56
2018-03-04T08:01:56.194Z,52.87
2018-03-04T08:02:37.316Z,52.66
2018-03-04T08:03:18.254Z,52.4
2018-03-04T08:03:58.784Z,52.59
2018-03-04T08:04:39.348Z,52.96
2018-03-04T08:05:20.074Z,52.4
2018-03-04T08:06:00.633Z,52.49
2018-03-04T08:06:41.241Z,52.3
2018-03-04T08:07:22.343Z,51.73
2018-03-04T08:08:03.553Z,51.83
2018-03-04T08:08:44.350Z,51.45
2018-03-04T08:09:24.934Z,51.54
2018-03-04T08:10:05.601Z,51.36
2018-03-04T08:10:46.154Z,50.72
2018-03-04T08:11:26.830Z,50.16
2018-03-04T08:12:07.457Z,49.68
2018-03-04T08:12:48.343Z,49.02
2018-03-04T08:13:29.442Z,48.18
2018-03-04T08:14:10.034Z,47.8
2018-03-04T08:14:50.599Z,47.32
2018-03-04T08:15:31.144Z,46.85
2018-03-04T08:16:11.812Z,46.85
2018-03-04T08:16:52.385Z,46.75
2018-03-04T08:17:32.947Z,46.85
2018-03-04T08:18:13.665Z,46.66
2018-03-04T08:18:54.504Z,47.42
2018-03-04T08:19:35.170Z,47.61
2018-03-04T08:20:15.737Z,47.61
2018-03-04T08:20:56.288Z,47.7
2018-03-04T08:21:36.851Z,48.18
2018-03-04T08:22:17.420Z,47.89
2018-03-04T08:22:58.011Z,48.74
2018-03-04T08:23:38.574Z,48.55
2018-03-04T08:24:19.160Z,48.65
2018-03-04T08:24:59.683Z,48.74
2018-03-04T08:25:40.237Z,48.18
2018-03-04T08:26:20.777Z,48.36
2018-03-04T08:27:01.344Z,47.99
2018-03-04T08:27:41.906Z,47.53
2018-03-04T08:28:22.479Z,47.44
2018-03-04T08:29:03.033Z,46.88
2018-03-04T08:29:43.610Z,46.21
2018-03-04T08:30:24.190Z,45.64
2018-03-04T08:31:04.706Z,45.27
2018-03-04T08:31:45.264Z,44.63
2018-03-04T08:32:26.134Z,43.96
2018-03-04T08:33:06.723Z,43.96
2018-03-04T08:33:47.308Z,43.21
2018-03-04T08:34:27.902Z,42.64
2018-03-04T08:35:08.446Z,42.74
2018-03-04T08:35:49.005Z,42.55
2018-03-04T08:36:29.563Z,42.55
2018-03-04T08:37:10.156Z,42.36
2018-03-04T08:37:50.919Z,41.89
2018-03-04T08:38:31.507Z,41.89
2018-03-04T08:39:12.356Z,41.79
2018-03-04T08:39:52.913Z,41.79
2018-03-04T08:40:33.527Z,41.89
2018-03-04T08:41:14.634Z,41.98
2018-03-04T08:41:55.240Z,42.08
2018-03-04T08:42:35.798Z,41.79
2018-03-04T08:43:16.398Z,41.7
2018-03-04T08:43:56.972Z,41.79
2018-03-04T08:44:37.576Z,41.89
2018-03-04T08:45:18.125Z,41.89
2018-03-04T08:45:58.768Z,41.6
2018-03-04T08:46:39.396Z,40.84
2018-03-04T08:47:19.979Z,41.03